Time;durP1;ratioP1;P1;durP2;ratioP2;P2;SDS_P1;SDS_P2;PMS_P1;PMS_P2;Temp;Humidity;BMP_temperature;BMP_pressure;BME280_temperature;BME280_humidity;BME280_pressure;Samples;Min_cycle;Max_cycle;Signal;HPM_P1;HPM_P2
2022/07/27 19:15:24;;;;;;;8.90;7.43;;;;;;;21.64;61.85;99015.16;5165265;27;20489;-69
2022/07/27 19:17:51;;;;;;;9.20;8.32;;;;;;;21.70;61.81;99019.91;5165272;27;20080;-70
2022/07/27 19:20:19;;;;;;;9.77;8.68;;;;;;;21.76;61.72;99016.53;5164073;27;20199;-69
2022/07/27 19:22:48;;;;;;;12.60;8.75;;;;;;;21.77;61.60;99019.06;5163913;27;20222;-70
2022/07/27 19:25:16;;;;;;;8.38;7.57;;;;;;;21.85;61.61;99023.69;5162514;27;20091;-69
2022/07/27 19:27:43;;;;;;;11.10;10.00;;;;;;;21.83;61.16;99022.16;5164159;27;20055;-69
2022/07/27 19:30:11;;;;;;;9.25;8.35;;;;;;;21.86;60.87;99019.13;5163875;27;20080;-69
2022/07/27 19:32:40;;;;;;;8.43;7.63;;;;;;;21.89;60.06;99032.28;5164162;27;20103;-70
2022/07/27 19:35:10;;;;;;;8.82;7.97;;;;;;;21.94;60.10;99027.25;5164038;27;20104;-71
2022/07/27 19:37:38;;;;;;;8.20;6.57;;;;;;;22.01;60.05;99044.47;5162971;27;20046;-71
2022/07/27 19:40:07;;;;;;;7.28;6.57;;;;;;;21.98;59.73;99037.53;5163534;27;20323;-70
2022/07/27 19:42:36;;;;;;;7.30;6.45;;;;;;;22.02;59.88;99046.16;5162487;27;20338;-71
2022/07/27 19:45:04;;;;;;;7.00;6.30;;;;;;;21.99;60.63;99046.47;5163766;27;20046;-71
2022/07/27 19:47:34;;;;;;;6.15;5.40;;;;;;;21.92;60.06;99037.38;5162774;27;20042;-70
2022/07/27 19:50:04;;;;;;;7.18;6.47;;;;;;;21.88;60.36;99047.63;5163700;27;20046;-70
2022/07/27 19:52:31;;;;;;;9.02;8.00;;;;;;;21.76;60.32;99030.03;5163904;27;20054;-70
2022/07/27 19:54:58;;;;;;;11.05;9.95;;;;;;;21.89;60.26;99049.31;5164008;27;20039;-71
2022/07/27 19:57:26;;;;;;;11.63;9.65;;;;;;;21.50;59.59;98997.75;5163906;27;20055;-70
2022/07/27 19:59:54;;;;;;;8.55;7.30;;;;;;;21.85;59.25;99066.00;5163277;27;20118;-70
2022/07/27 20:02:21;;;;;;;7.38;6.32;;;;;;;21.84;60.17;99059.75;5163646;27;20100;-71
2022/07/27 20:04:48;;;;;;;9.07;8.07;;;;;;;21.70;59.63;99042.31;5162214;27;20053;-71
2022/07/27 20:07:17;;;;;;;7.25;5.80;;;;;;;21.79;59.64;99062.06;5163692;27;20066;-71
2022/07/27 20:09:44;;;;;;;8.43;7.25;;;;;;;21.71;59.10;99040.47;5163821;27;20234;-71
2022/07/27 20:12:11;;;;;;;10.52;9.23;;;;;;;21.66;59.30;99054.44;5163421;27;20080;-71
2022/07/27 20:14:39;;;;;;;8.15;6.97;;;;;;;21.81;58.70;99070.88;5163191;27;20054;-71
2022/07/27 20:17:07;;;;;;;8.35;6.60;;;;;;;21.39;58.94;99006.97;5161764;27;20059;-71
2022/07/27 20:19:34;;;;;;;6.25;5.65;;;;;;;21.70;58.76;99079.22;5163017;27;20055;-71
2022/07/27 20:22:02;;;;;;;6.68;6.07;;;;;;;21.21;59.11;98999.97;5162474;27;20088;-71
2022/07/27 20:24:31;;;;;;;6.63;5.53;;;;;;;21.74;58.87;99088.69;5162466;27;20059;-71
2022/07/27 20:26:58;;;;;;;9.27;7.15;;;;;;;21.09;58.69;98994.88;5149079;27;20100;-70
2022/07/27 20:29:28;;;;;;;6.20;5.53;;;;;;;21.69;59.36;99081.09;5149622;27;20094;-70
2022/07/27 20:31:56;;;;;;;5.95;5.10;;;;;;;21.31;59.09;99011.47;5149536;27;20245;-71
2022/07/27 20:34:23;;;;;;;5.32;4.32;;;;;;;21.18;59.05;98998.44;5149180;27;20081;-70
2022/07/27 20:36:51;;;;;;;5.95;4.72;;;;;;;21.74;58.69;99094.09;5149635;27;20088;-71
2022/07/27 20:39:18;;;;;;;5.50;4.28;;;;;;;21.51;58.66;99074.09;5149259;27;20088;-70
2022/07/27 20:41:47;;;;;;;5.88;5.28;;;;;;;21.31;59.24;99057.28;5148851;27;20206;-70
2022/07/27 20:44:14;;;;;;;4.63;4.22;;;;;;;21.62;59.06;99096.22;5149137;27;20253;-70
2022/07/27 20:46:42;;;;;;;6.75;5.85;;;;;;;21.17;59.06;99021.00;5149223;27;20256;-70
2022/07/27 20:49:10;;;;;;;7.18;5.80;;;;;;;21.62;58.97;99082.72;5149143;27;20098;-70
2022/07/27 20:51:38;;;;;;;10.55;8.75;;;;;;;21.57;58.79;99086.91;5148001;27;20307;-70
2022/07/27 20:54:05;;;;;;;7.75;6.95;;;;;;;21.57;58.87;99081.53;5148583;27;20051;-70
2022/07/27 20:56:33;;;;;;;7.95;6.75;;;;;;;21.59;59.41;99085.75;5148654;27;20084;-70
2022/07/27 20:59:02;;;;;;;6.88;6.18;;;;;;;21.53;58.75;99086.41;5148909;27;20051;-71
2022/07/27 21:01:29;;;;;;;6.10;5.15;;;;;;;21.46;59.31;99090.75;5149044;27;20295;-70
2022/07/27 21:03:57;;;;;;;7.00;6.30;;;;;;;21.48;58.39;99090.59;5148793;27;20035;-70
2022/07/27 21:06:26;;;;;;;6.35;5.70;;;;;;;21.53;59.16;99093.66;5148830;27;20371;-71
2022/07/27 21:08:53;;;;;;;7.88;6.90;;;;;;;;;;5148945;27;20051;-70
2022/07/27 21:11:20;;;;;;;6.88;6.18;;;;;;;21.48;59.06;99098.66;5148949;27;20180;-70
2022/07/27 21:13:47;;;;;;;6.43;5.50;;;;;;;21.47;58.81;99100.53;5148390;27;20059;-70
2022/07/27 21:16:17;;;;;;;5.78;5.28;;;;;;;21.49;58.33;99093.13;5148597;27;20059;-71
2022/07/27 21:18:47;;;;;;;7.00;6.22;;;;;;;21.40;58.29;99088.69;5148683;27;20035;-69
2022/07/27 21:21:14;;;;;;;5.85;5.30;;;;;;;21.35;58.79;99104.50;5148138;27;20059;-70
2022/07/27 21:26:27;;;;;;;8.13;6.50;;;;;;;21.29;59.78;99110.53;5148375;27;20080;-69
2022/07/27 21:28:55;;;;;;;6.40;5.80;;;;;;;21.11;59.42;99092.56;5148512;27;20055;-71
2022/07/27 21:31:23;;;;;;;11.38;10.25;;;;;;;21.26;59.28;99119.75;5148018;27;20311;-70
2022/07/27 21:33:51;;;;;;;9.18;7.95;;;;;;;21.21;59.84;99126.63;5148345;27;20070;-70
2022/07/27 21:36:18;;;;;;;9.90;6.18;;;;;;;20.88;60.03;99090.50;5147597;27;20047;-70
2022/07/27 21:38:45;;;;;;;5.88;5.22;;;;;;;20.95;59.97;99105.03;5147409;27;20215;-70
2022/07/27 21:41:13;;;;;;;7.65;6.95;;;;;;;21.11;59.70;99132.97;5147894;27;20055;-71
2022/07/27 21:43:40;;;;;;;9.20;8.25;;;;;;;20.98;60.15;99143.28;5148184;27;20107;-71
2022/07/27 21:46:10;;;;;;;11.40;10.30;;;;;;;21.06;60.25;99145.22;5148125;27;20112;-71
2022/07/27 21:48:39;;;;;;;9.73;8.60;;;;;;;20.95;60.40;99153.50;5147918;27;20050;-70
2022/07/27 21:51:07;;;;;;;7.50;6.72;;;;;;;20.90;60.77;99145.06;5148270;27;20237;-70
2022/07/27 21:53:34;;;;;;;7.35;5.82;;;;;;;20.97;60.76;99143.44;5147908;27;20051;-69
2022/07/27 21:56:04;;;;;;;7.00;5.45;;;;;;;21.04;60.14;99145.38;5147336;27;20055;-70
2022/07/27 21:58:31;;;;;;;8.27;6.05;;;;;;;20.61;60.21;99077.97;5147811;27;20112;-70
2022/07/27 22:00:58;;;;;;;7.68;6.90;;;;;;;21.09;60.29;99150.28;5146356;27;20066;-70
2022/07/27 22:03:27;;;;;;;6.10;5.50;;;;;;;20.56;60.19;99064.97;5147548;27;20100;-70
2022/07/27 22:05:55;;;;;;;5.80;5.20;;;;;;;20.97;60.03;99146.97;5147645;27;20039;-70
2022/07/27 22:08:23;;;;;;;6.15;4.97;;;;;;;20.98;60.44;99147.81;5147846;27;20114;-69
2022/07/27 22:10:50;;;;;;;5.93;4.60;;;;;;;20.94;60.29;99154.50;5147583;27;20055;-70
2022/07/27 22:13:17;;;;;;;6.40;4.20;;;;;;;20.88;60.58;99152.44;5147009;27;20107;-70
2022/07/27 22:15:48;;;;;;;6.45;4.07;;;;;;;20.93;60.20;99148.28;5147468;27;20128;-70
2022/07/27 22:18:15;;;;;;;5.20;4.22;;;;;;;20.68;60.49;99122.97;5147242;27;20050;-70
2022/07/27 22:20:42;;;;;;;5.63;4.40;;;;;;;20.79;60.52;99146.97;5147466;27;20081;-70
2022/07/27 22:23:11;;;;;;;5.55;4.60;;;;;;;20.82;60.85;99151.22;5147129;27;20240;-70
2022/07/27 22:25:39;;;;;;;5.50;4.53;;;;;;;20.25;60.83;99091.44;5146877;27;20051;-71
2022/07/27 22:28:06;;;;;;;7.53;5.88;;;;;;;20.70;60.65;99144.38;5147156;27;20051;-71
2022/07/27 22:30:33;;;;;;;5.72;5.10;;;;;;;20.65;61.17;99144.81;5147194;27;20100;-70
2022/07/27 22:33:01;;;;;;;5.70;5.10;;;;;;;20.60;61.25;99141.75;5147120;27;20062;-70
2022/07/27 22:35:29;;;;;;;5.72;4.88;;;;;;;19.73;61.43;98998.84;5147026;27;20055;-72
2022/07/27 22:37:56;;;;;;;6.40;4.60;;;;;;;20.66;61.34;99141.13;5146264;27;20047;-71
2022/07/27 22:40:25;;;;;;;7.60;6.15;;;;;;;20.50;61.30;99144.50;5147183;27;20037;-70
2022/07/27 22:42:52;;;;;;;5.95;5.00;;;;;;;20.46;62.04;99150.34;5146645;27;20052;-69
2022/07/27 22:45:19;;;;;;;8.23;7.43;;;;;;;20.42;61.95;99124.75;5146924;27;20058;-70
2022/07/27 22:47:46;;;;;;;7.07;5.70;;;;;;;20.52;61.59;99151.59;5146649;27;20059;-70
2022/07/27 22:50:13;;;;;;;7.55;5.03;;;;;;;20.65;61.33;99147.53;5146757;27;20050;-71
2022/07/27 22:52:41;;;;;;;5.63;5.00;;;;;;;19.55;60.72;98966.56;5146931;27;20100;-70
2022/07/27 22:55:09;;;;;;;7.13;5.25;;;;;;;20.48;60.67;99121.44;5146722;27;20237;-70
2022/07/27 22:57:39;;;;;;;6.00;4.90;;;;;;;20.69;61.00;99145.38;5146987;27;20104;-70
2022/07/27 23:00:07;;;;;;;6.18;4.30;;;;;;;20.35;61.47;99110.19;5146401;27;20054;-70
2022/07/27 23:02:35;;;;;;;5.22;4.47;;;;;;;20.42;61.99;99154.34;5146799;27;20100;-70
2022/07/27 23:05:02;;;;;;;5.40;4.75;;;;;;;20.43;62.04;99156.88;5146675;27;20039;-70
2022/07/27 23:07:29;;;;;;;5.93;4.28;;;;;;;20.30;62.55;99163.63;5146737;27;20055;-72
2022/07/27 23:09:56;;;;;;;5.18;3.75;;;;;;;20.29;62.48;99165.47;5146769;27;20126;-70
2022/07/27 23:12:24;;;;;;;5.07;4.57;;;;;;;20.21;63.09;99164.50;5145730;28;20299;-69
2022/07/27 23:14:53;;;;;;;4.82;4.32;;;;;;;20.26;62.70;99171.16;5145505;28;20070;-71
2022/07/27 23:17:20;;;;;;;5.43;4.53;;;;;;;20.26;62.88;99173.00;5147091;27;20051;-71
2022/07/27 23:19:47;;;;;;;6.75;5.00;;;;;;;20.24;63.22;99166.94;5146483;28;20080;-70
2022/07/27 23:22:14;;;;;;;7.30;5.88;;;;;;;20.23;63.61;99176.00;5146413;27;20061;-70
2022/07/27 23:24:41;;;;;;;5.43;4.63;;;;;;;20.21;63.39;99164.50;5146351;27;20104;-69
2022/07/27 23:27:08;;;;;;;6.60;5.82;;;;;;;20.34;63.11;99165.03;5146357;27;20055;-69
2022/07/27 23:29:36;;;;;;;7.25;5.13;;;;;;;20.27;63.35;99172.00;5147344;28;20058;-70
2022/07/27 23:32:09;;;;;;;7.53;5.93;;;;;;;20.29;63.47;99175.41;5146228;27;20262;-69
2022/07/27 23:34:37;;;;;;;6.32;5.65;;;;;;;20.32;63.20;99175.09;5145968;28;20059;-70
2022/07/27 23:37:04;;;;;;;6.00;5.25;;;;;;;19.80;63.38;99108.38;5146246;28;20084;-69
2022/07/27 23:39:31;;;;;;;6.65;4.60;;;;;;;19.29;63.59;98998.63;5146159;28;20071;-70
2022/07/27 23:41:58;;;;;;;5.63;4.32;;;;;;;20.19;63.63;99141.28;5146111;28;20050;-70
2022/07/27 23:44:25;;;;;;;5.88;4.45;;;;;;;20.35;63.38;99159.50;5146093;27;20112;-69
2022/07/27 23:46:52;;;;;;;6.72;4.47;;;;;;;20.31;63.35;99162.63;5145456;28;20314;-70
2022/07/27 23:49:21;;;;;;;6.47;4.00;;;;;;;19.39;63.55;99004.84;5145974;27;20055;-70
2022/07/27 23:51:48;;;;;;;5.72;4.45;;;;;;;20.32;63.19;99151.72;5146382;27;20090;-70
2022/07/27 23:54:16;;;;;;;5.55;4.95;;;;;;;20.18;63.76;99155.75;5146747;28;20084;-70
2022/07/27 23:56:43;;;;;;;6.93;5.30;;;;;;;20.18;63.54;99162.97;5146375;27;20323;-69
2022/07/27 23:59:10;;;;;;;6.93;5.40;;;;;;;20.13;64.19;99166.09;5146803;27;20267;-70
